sensor_id;sensor_type;location;lat;lon;timestamp;pressure;altitude;pressure_sealevel;temperature;humidity
81299;BME280;70766;53.170;18.160;2023-06-19T00:00:16;101093.76;;;13.16;100.00
81299;BME280;70766;53.170;18.160;2023-06-19T00:03:05;101093.20;;;13.18;100.00
81299;BME280;70766;53.170;18.160;2023-06-19T00:05:33;101094.04;;;13.19;100.00
81299;BME280;70766;53.170;18.160;2023-06-19T00:08:01;101093.48;;;13.20;100.00
81299;BME280;70766;53.170;18.160;2023-06-19T00:10:31;101092.74;;;13.19;100.00
81299;BME280;70766;53.170;18.160;2023-06-19T00:12:59;101088.66;;;13.19;100.00
81299;BME280;70766;53.170;18.160;2023-06-19T00:15:27;101090.94;;;13.18;100.00
81299;BME280;70766;53.170;18.160;2023-06-19T00:17:57;101090.70;;;13.17;100.00
81299;BME280;70766;53.170;18.160;2023-06-19T00:20:26;101089.63;;;13.17;100.00
81299;BME280;70766;53.170;18.160;2023-06-19T00:22:54;101090.57;;;13.16;100.00
81299;BME280;70766;53.170;18.160;2023-06-19T00:25:22;101087.67;;;13.12;100.00
81299;BME280;70766;53.170;18.160;2023-06-19T00:27:50;101088.73;;;13.09;100.00
81299;BME280;70766;53.170;18.160;2023-06-19T00:30:19;101090.41;;;13.05;100.00
81299;BME280;70766;53.170;18.160;2023-06-19T00:32:47;101086.64;;;12.99;100.00
81299;BME280;70766;53.170;18.160;2023-06-19T00:35:17;101090.33;;;12.96;100.00
81299;BME280;70766;53.170;18.160;2023-06-19T00:37:50;101089.68;;;12.92;100.00
81299;BME280;70766;53.170;18.160;2023-06-19T00:40:27;101092.27;;;12.86;100.00
81299;BME280;70766;53.170;18.160;2023-06-19T00:42:56;101089.64;;;12.82;100.00
81299;BME280;70766;53.170;18.160;2023-06-19T00:45:25;101086.53;;;12.80;100.00
81299;BME280;70766;53.170;18.160;2023-06-19T00:47:54;101089.44;;;12.76;100.00
81299;BME280;70766;53.170;18.160;2023-06-19T00:50:23;101092.30;;;12.72;100.00
81299;BME280;70766;53.170;18.160;2023-06-19T00:52:53;101089.73;;;12.66;100.00
81299;BME280;70766;53.170;18.160;2023-06-19T00:55:21;101093.32;;;12.64;100.00
81299;BME280;70766;53.170;18.160;2023-06-19T00:57:50;101088.55;;;12.61;100.00
81299;BME280;70766;53.170;18.160;2023-06-19T01:00:20;101090.40;;;12.57;100.00
81299;BME280;70766;53.170;18.160;2023-06-19T01:02:49;101088.44;;;12.52;100.00
81299;BME280;70766;53.170;18.160;2023-06-19T01:05:17;101087.71;;;12.49;100.00
81299;BME280;70766;53.170;18.160;2023-06-19T01:10:34;101083.40;;;12.45;100.00
81299;BME280;70766;53.170;18.160;2023-06-19T01:13:12;101080.33;;;12.46;100.00
81299;BME280;70766;53.170;18.160;2023-06-19T01:15:43;101080.45;;;12.47;100.00
81299;BME280;70766;53.170;18.160;2023-06-19T01:18:12;101077.58;;;12.44;100.00
81299;BME280;70766;53.170;18.160;2023-06-19T01:20:43;101077.35;;;12.42;100.00
81299;BME280;70766;53.170;18.160;2023-06-19T01:23:11;101075.86;;;12.43;100.00
81299;BME280;70766;53.170;18.160;2023-06-19T01:25:39;101075.96;;;12.41;100.00
81299;BME280;70766;53.170;18.160;2023-06-19T01:28:09;101076.64;;;12.38;100.00
81299;BME280;70766;53.170;18.160;2023-06-19T01:30:41;101078.03;;;12.36;100.00
81299;BME280;70766;53.170;18.160;2023-06-19T01:33:18;101080.02;;;12.36;100.00
81299;BME280;70766;53.170;18.160;2023-06-19T01:35:50;101081.40;;;12.35;100.00
81299;BME280;70766;53.170;18.160;2023-06-19T01:38:24;101082.71;;;12.30;100.00
81299;BME280;70766;53.170;18.160;2023-06-19T01:40:55;101081.95;;;12.22;100.00
81299;BME280;70766;53.170;18.160;2023-06-19T01:43:24;101084.55;;;12.16;100.00
81299;BME280;70766;53.170;18.160;2023-06-19T01:45:53;101086.66;;;12.13;100.00
81299;BME280;70766;53.170;18.160;2023-06-19T01:48:23;101088.21;;;12.11;100.00
81299;BME280;70766;53.170;18.160;2023-06-19T01:50:51;101089.05;;;12.10;100.00
81299;BME280;70766;53.170;18.160;2023-06-19T01:53:19;101093.73;;;12.07;100.00
81299;BME280;70766;53.170;18.160;2023-06-19T01:55:47;101091.04;;;12.01;100.00
81299;BME280;70766;53.170;18.160;2023-06-19T01:58:15;101094.13;;;11.98;100.00
81299;BME280;70766;53.170;18.160;2023-06-19T02:00:43;101094.26;;;11.95;100.00
81299;BME280;70766;53.170;18.160;2023-06-19T02:03:11;101094.42;;;11.91;100.00
81299;BME280;70766;53.170;18.160;2023-06-19T02:05:40;101097.70;;;11.91;100.00
81299;BME280;70766;53.170;18.160;2023-06-19T02:08:08;101097.55;;;11.95;100.00
81299;BME280;70766;53.170;18.160;2023-06-19T02:10:37;101092.49;;;12.00;100.00
81299;BME280;70766;53.170;18.160;2023-06-19T02:13:05;101092.00;;;12.06;100.00
81299;BME280;70766;53.170;18.160;2023-06-19T02:15:33;101091.73;;;12.11;100.00
81299;BME280;70766;53.170;18.160;2023-06-19T02:18:01;101087.95;;;12.19;100.00
81299;BME280;70766;53.170;18.160;2023-06-19T02:20:30;101087.52;;;12.26;100.00
81299;BME280;70766;53.170;18.160;2023-06-19T02:22:58;101088.89;;;12.35;100.00
81299;BME280;70766;53.170;18.160;2023-06-19T02:25:26;101082.52;;;12.43;100.00
81299;BME280;70766;53.170;18.160;2023-06-19T02:27:54;101085.36;;;12.50;100.00
81299;BME280;70766;53.170;18.160;2023-06-19T02:30:22;101085.96;;;12.54;100.00
81299;BME280;70766;53.170;18.160;2023-06-19T02:32:51;101083.23;;;12.57;100.00
81299;BME280;70766;53.170;18.160;2023-06-19T02:35:20;101078.52;;;12.60;100.00
81299;BME280;70766;53.170;18.160;2023-06-19T02:37:48;101077.15;;;12.61;100.00
81299;BME280;70766;53.170;18.160;2023-06-19T02:40:16;101072.00;;;12.62;100.00
81299;BME280;70766;53.170;18.160;2023-06-19T02:42:44;101077.57;;;12.63;100.00
81299;BME280;70766;53.170;18.160;2023-06-19T02:45:14;101082.48;;;12.63;100.00
81299;BME280;70766;53.170;18.160;2023-06-19T02:47:44;101080.98;;;12.63;100.00
81299;BME280;70766;53.170;18.160;2023-06-19T02:50:12;101080.11;;;12.63;100.00
81299;BME280;70766;53.170;18.160;2023-06-19T02:52:40;101085.09;;;12.66;100.00
81299;BME280;70766;53.170;18.160;2023-06-19T02:55:08;101081.77;;;12.69;100.00
81299;BME280;70766;53.170;18.160;2023-06-19T02:57:36;101074.67;;;12.72;100.00
81299;BME280;70766;53.170;18.160;2023-06-19T03:00:05;101076.21;;;12.77;100.00
81299;BME280;70766;53.170;18.160;2023-06-19T03:02:38;101077.94;;;12.81;100.00
81299;BME280;70766;53.170;18.160;2023-06-19T03:05:12;101079.98;;;12.85;100.00
81299;BME280;70766;53.170;18.160;2023-06-19T03:07:43;101079.96;;;12.91;100.00
81299;BME280;70766;53.170;18.160;2023-06-19T03:10:11;101082.05;;;12.97;100.00
81299;BME280;70766;53.170;18.160;2023-06-19T03:12:39;101081.70;;;13.03;100.00
81299;BME280;70766;53.170;18.160;2023-06-19T03:15:07;101082.88;;;13.10;100.00
81299;BME280;70766;53.170;18.160;2023-06-19T03:17:37;101077.80;;;13.16;100.00
81299;BME280;70766;53.170;18.160;2023-06-19T03:20:06;101082.52;;;13.22;100.00
81299;BME280;70766;53.170;18.160;2023-06-19T03:22:39;101083.52;;;13.27;100.00
81299;BME280;70766;53.170;18.160;2023-06-19T03:25:09;101087.23;;;13.36;100.00
81299;BME280;70766;53.170;18.160;2023-06-19T03:27:37;101086.98;;;13.42;100.00
81299;BME280;70766;53.170;18.160;2023-06-19T03:30:05;101094.23;;;13.48;100.00
81299;BME280;70766;53.170;18.160;2023-06-19T03:32:42;101096.96;;;13.54;100.00
81299;BME280;70766;53.170;18.160;2023-06-19T03:35:15;101098.00;;;13.61;100.00
81299;BME280;70766;53.170;18.160;2023-06-19T03:37:44;101098.39;;;13.71;100.00
81299;BME280;70766;53.170;18.160;2023-06-19T03:40:12;101099.33;;;13.83;100.00
81299;BME280;70766;53.170;18.160;2023-06-19T03:42:43;101103.40;;;13.91;100.00
81299;BME280;70766;53.170;18.160;2023-06-19T03:45:12;101107.15;;;14.00;100.00
81299;BME280;70766;53.170;18.160;2023-06-19T03:47:40;101103.11;;;14.09;100.00
81299;BME280;70766;53.170;18.160;2023-06-19T03:50:09;101102.88;;;14.18;100.00
81299;BME280;70766;53.170;18.160;2023-06-19T03:52:57;101099.19;;;14.27;100.00
81299;BME280;70766;53.170;18.160;2023-06-19T03:55:26;101094.52;;;14.33;100.00
81299;BME280;70766;53.170;18.160;2023-06-19T03:57:54;101093.38;;;14.42;100.00
81299;BME280;70766;53.170;18.160;2023-06-19T04:00:22;101094.25;;;14.51;100.00
81299;BME280;70766;53.170;18.160;2023-06-19T04:02:51;101097.21;;;14.60;100.00
81299;BME280;70766;53.170;18.160;2023-06-19T04:05:20;101101.09;;;14.70;100.00
81299;BME280;70766;53.170;18.160;2023-06-19T04:07:48;101100.48;;;14.78;100.00
81299;BME280;70766;53.170;18.160;2023-06-19T04:10:16;101097.93;;;14.84;100.00
81299;BME280;70766;53.170;18.160;2023-06-19T04:12:44;101099.73;;;14.92;100.00
81299;BME280;70766;53.170;18.160;2023-06-19T04:15:13;101099.83;;;15.03;100.00
81299;BME280;70766;53.170;18.160;2023-06-19T04:17:41;101100.05;;;15.17;100.00
81299;BME280;70766;53.170;18.160;2023-06-19T04:20:10;101099.70;;;15.72;100.00
81299;BME280;70766;53.170;18.160;2023-06-19T04:22:40;101093.09;;;17.10;100.00
81299;BME280;70766;53.170;18.160;2023-06-19T04:25:09;101094.00;;;18.59;100.00
81299;BME280;70766;53.170;18.160;2023-06-19T04:27:39;101093.83;;;19.79;100.00
81299;BME280;70766;53.170;18.160;2023-06-19T04:30:07;101092.73;;;20.67;100.00
81299;BME280;70766;53.170;18.160;2023-06-19T04:32:36;101090.48;;;21.33;100.00
81299;BME280;70766;53.170;18.160;2023-06-19T04:35:09;101087.36;;;22.00;100.00
81299;BME280;70766;53.170;18.160;2023-06-19T04:37:38;101085.55;;;22.54;100.00
81299;BME280;70766;53.170;18.160;2023-06-19T04:40:06;101086.31;;;23.19;100.00
81299;BME280;70766;53.170;18.160;2023-06-19T04:42:38;101086.05;;;23.77;100.00
81299;BME280;70766;53.170;18.160;2023-06-19T04:45:07;101081.51;;;24.43;100.00
81299;BME280;70766;53.170;18.160;2023-06-19T04:47:35;101083.95;;;24.87;100.00
81299;BME280;70766;53.170;18.160;2023-06-19T04:50:20;101082.58;;;25.29;100.00
81299;BME280;70766;53.170;18.160;2023-06-19T04:52:50;101082.09;;;25.72;94.69
81299;BME280;70766;53.170;18.160;2023-06-19T04:55:19;101086.48;;;26.14;97.44
81299;BME280;70766;53.170;18.160;2023-06-19T04:57:47;101084.73;;;26.49;87.60
81299;BME280;70766;53.170;18.160;2023-06-19T05:00:16;101094.10;;;26.25;87.51
81299;BME280;70766;53.170;18.160;2023-06-19T05:02:47;101096.00;;;26.48;90.17
81299;BME280;70766;53.170;18.160;2023-06-19T05:05:19;101094.09;;;26.79;92.14
81299;BME280;70766;53.170;18.160;2023-06-19T05:07:51;101097.56;;;27.00;92.70
81299;BME280;70766;53.170;18.160;2023-06-19T05:10:20;101097.27;;;27.23;87.34
81299;BME280;70766;53.170;18.160;2023-06-19T05:12:49;101104.70;;;27.40;82.44
81299;BME280;70766;53.170;18.160;2023-06-19T05:15:17;101108.70;;;27.50;81.06
81299;BME280;70766;53.170;18.160;2023-06-19T05:17:45;101114.17;;;27.84;79.18
81299;BME280;70766;53.170;18.160;2023-06-19T05:20:14;101111.98;;;27.93;71.27
81299;BME280;70766;53.170;18.160;2023-06-19T05:22:43;101106.17;;;27.92;74.09
81299;BME280;70766;53.170;18.160;2023-06-19T05:25:11;101112.90;;;28.02;71.72
81299;BME280;70766;53.170;18.160;2023-06-19T05:27:39;101111.89;;;28.15;66.69
81299;BME280;70766;53.170;18.160;2023-06-19T05:30:08;101112.39;;;28.03;63.59
81299;BME280;70766;53.170;18.160;2023-06-19T05:32:37;101114.15;;;28.23;61.44
81299;BME280;70766;53.170;18.160;2023-06-19T05:35:05;101113.10;;;28.30;59.78
81299;BME280;70766;53.170;18.160;2023-06-19T05:37:34;101114.77;;;28.40;59.71
81299;BME280;70766;53.170;18.160;2023-06-19T05:40:02;101119.16;;;28.51;56.89
81299;BME280;70766;53.170;18.160;2023-06-19T05:42:31;101118.63;;;28.58;57.78
81299;BME280;70766;53.170;18.160;2023-06-19T05:44:59;101120.54;;;28.62;56.92
81299;BME280;70766;53.170;18.160;2023-06-19T05:47:27;101123.23;;;28.56;53.01
81299;BME280;70766;53.170;18.160;2023-06-19T05:49:57;101128.36;;;28.21;55.55
81299;BME280;70766;53.170;18.160;2023-06-19T05:52:25;101130.98;;;28.38;55.35
81299;BME280;70766;53.170;18.160;2023-06-19T05:54:53;101130.54;;;28.50;56.28
81299;BME280;70766;53.170;18.160;2023-06-19T05:57:21;101133.06;;;28.66;54.42
81299;BME280;70766;53.170;18.160;2023-06-19T05:59:50;101134.65;;;28.80;54.28
81299;BME280;70766;53.170;18.160;2023-06-19T06:02:19;101131.33;;;28.66;52.93
81299;BME280;70766;53.170;18.160;2023-06-19T06:04:48;101131.97;;;28.48;53.33
81299;BME280;70766;53.170;18.160;2023-06-19T06:07:16;101131.35;;;28.41;52.72
81299;BME280;70766;53.170;18.160;2023-06-19T06:09:44;101129.63;;;28.33;53.23
81299;BME280;70766;53.170;18.160;2023-06-19T06:12:12;101130.66;;;28.57;54.09
81299;BME280;70766;53.170;18.160;2023-06-19T06:14:41;101127.64;;;28.57;51.63
81299;BME280;70766;53.170;18.160;2023-06-19T06:17:09;101129.38;;;28.36;51.83
81299;BME280;70766;53.170;18.160;2023-06-19T06:19:38;101129.44;;;28.36;53.33
81299;BME280;70766;53.170;18.160;2023-06-19T06:22:06;101130.58;;;28.49;52.19
81299;BME280;70766;53.170;18.160;2023-06-19T06:24:35;101127.27;;;28.81;52.98
81299;BME280;70766;53.170;18.160;2023-06-19T06:27:03;101125.21;;;29.10;51.72
81299;BME280;70766;53.170;18.160;2023-06-19T06:29:32;101134.12;;;28.85;50.20
81299;BME280;70766;53.170;18.160;2023-06-19T06:32:05;101136.47;;;28.58;50.70
81299;BME280;70766;53.170;18.160;2023-06-19T06:34:34;101138.50;;;28.55;50.89
81299;BME280;70766;53.170;18.160;2023-06-19T06:37:02;101140.89;;;28.62;51.25
81299;BME280;70766;53.170;18.160;2023-06-19T06:39:33;101141.44;;;28.72;50.30
81299;BME280;70766;53.170;18.160;2023-06-19T06:42:01;101145.25;;;28.56;48.47
81299;BME280;70766;53.170;18.160;2023-06-19T06:44:30;101146.91;;;28.62;50.40
81299;BME280;70766;53.170;18.160;2023-06-19T06:46:58;101147.52;;;28.62;49.26
81299;BME280;70766;53.170;18.160;2023-06-19T06:49:26;101147.35;;;28.68;49.85
81299;BME280;70766;53.170;18.160;2023-06-19T06:51:54;101149.18;;;28.38;49.94
81299;BME280;70766;53.170;18.160;2023-06-19T06:54:25;101149.09;;;28.48;48.77
81299;BME280;70766;53.170;18.160;2023-06-19T06:56:53;101149.80;;;28.17;47.27
81299;BME280;70766;53.170;18.160;2023-06-19T06:59:25;101151.42;;;28.20;45.62
81299;BME280;70766;53.170;18.160;2023-06-19T07:01:55;101156.08;;;28.61;48.80
81299;BME280;70766;53.170;18.160;2023-06-19T07:04:24;101154.91;;;28.94;48.82
81299;BME280;70766;53.170;18.160;2023-06-19T07:06:54;101155.09;;;28.90;46.66
81299;BME280;70766;53.170;18.160;2023-06-19T07:09:22;101157.59;;;29.02;46.27
81299;BME280;70766;53.170;18.160;2023-06-19T07:11:50;101159.05;;;28.89;45.70
81299;BME280;70766;53.170;18.160;2023-06-19T07:14:20;101161.82;;;28.68;46.70
81299;BME280;70766;53.170;18.160;2023-06-19T07:16:49;101158.10;;;29.07;48.06
81299;BME280;70766;53.170;18.160;2023-06-19T07:19:18;101156.16;;;29.06;45.42
81299;BME280;70766;53.170;18.160;2023-06-19T07:21:46;101160.71;;;28.82;46.87
81299;BME280;70766;53.170;18.160;2023-06-19T07:24:15;101163.92;;;28.56;45.90
81299;BME280;70766;53.170;18.160;2023-06-19T07:26:43;101164.81;;;28.35;45.92
81299;BME280;70766;53.170;18.160;2023-06-19T07:29:11;101165.75;;;28.19;47.12
81299;BME280;70766;53.170;18.160;2023-06-19T07:31:39;101161.43;;;28.37;47.15
81299;BME280;70766;53.170;18.160;2023-06-19T07:34:10;101166.73;;;28.77;47.12
81299;BME280;70766;53.170;18.160;2023-06-19T07:36:39;101171.43;;;28.86;46.86
81299;BME280;70766;53.170;18.160;2023-06-19T07:39:07;101169.01;;;28.75;45.22
81299;BME280;70766;53.170;18.160;2023-06-19T07:41:36;101166.50;;;29.07;45.71
81299;BME280;70766;53.170;18.160;2023-06-19T07:44:04;101165.89;;;29.29;46.72
81299;BME280;70766;53.170;18.160;2023-06-19T07:46:32;101171.52;;;29.04;46.56
81299;BME280;70766;53.170;18.160;2023-06-19T07:49:01;101174.04;;;28.76;45.96
81299;BME280;70766;53.170;18.160;2023-06-19T07:51:29;101177.89;;;28.40;45.42
81299;BME280;70766;53.170;18.160;2023-06-19T07:53:57;101178.39;;;28.68;46.02
81299;BME280;70766;53.170;18.160;2023-06-19T07:56:25;101176.42;;;28.88;44.81
81299;BME280;70766;53.170;18.160;2023-06-19T07:58:53;101177.02;;;28.83;42.61
81299;BME280;70766;53.170;18.160;2023-06-19T08:01:21;101176.61;;;28.96;42.49
81299;BME280;70766;53.170;18.160;2023-06-19T08:03:49;101174.64;;;28.87;42.48
81299;BME280;70766;53.170;18.160;2023-06-19T08:06:17;101176.29;;;28.97;43.48
81299;BME280;70766;53.170;18.160;2023-06-19T08:08:45;101170.51;;;28.89;42.96
81299;BME280;70766;53.170;18.160;2023-06-19T08:11:14;101167.98;;;28.47;41.35
81299;BME280;70766;53.170;18.160;2023-06-19T08:13:42;101168.86;;;28.32;40.05
81299;BME280;70766;53.170;18.160;2023-06-19T08:16:10;101166.86;;;28.31;42.06
81299;BME280;70766;53.170;18.160;2023-06-19T08:18:38;101163.80;;;28.68;42.64
81299;BME280;70766;53.170;18.160;2023-06-19T08:21:07;101154.77;;;29.04;40.99
81299;BME280;70766;53.170;18.160;2023-06-19T08:23:35;101154.27;;;29.61;42.61
81299;BME280;70766;53.170;18.160;2023-06-19T08:26:03;101148.90;;;29.75;39.11
81299;BME280;70766;53.170;18.160;2023-06-19T08:28:32;101151.05;;;29.21;39.19
81299;BME280;70766;53.170;18.160;2023-06-19T08:31:00;101150.80;;;29.40;40.17
81299;BME280;70766;53.170;18.160;2023-06-19T08:33:29;101155.86;;;29.55;40.53
81299;BME280;70766;53.170;18.160;2023-06-19T08:35:57;101155.70;;;29.57;41.55
81299;BME280;70766;53.170;18.160;2023-06-19T08:38:25;101158.80;;;29.64;40.20
81299;BME280;70766;53.170;18.160;2023-06-19T08:40:53;101158.45;;;29.83;38.62
81299;BME280;70766;53.170;18.160;2023-06-19T08:43:23;101160.60;;;29.66;38.12
81299;BME280;70766;53.170;18.160;2023-06-19T08:46:21;101162.05;;;29.96;39.94
81299;BME280;70766;53.170;18.160;2023-06-19T08:48:54;101162.55;;;29.71;39.45
81299;BME280;70766;53.170;18.160;2023-06-19T08:51:29;101164.93;;;29.57;39.67
81299;BME280;70766;53.170;18.160;2023-06-19T08:54:05;101163.91;;;29.61;40.04
81299;BME280;70766;53.170;18.160;2023-06-19T08:56:34;101155.88;;;29.87;38.62
81299;BME280;70766;53.170;18.160;2023-06-19T08:59:14;101150.70;;;30.38;40.33
81299;BME280;70766;53.170;18.160;2023-06-19T09:01:50;101149.93;;;30.81;40.50
81299;BME280;70766;53.170;18.160;2023-06-19T09:04:26;101146.30;;;30.56;38.90
81299;BME280;70766;53.170;18.160;2023-06-19T09:06:59;101142.63;;;29.38;38.20
81299;BME280;70766;53.170;18.160;2023-06-19T09:09:29;101148.25;;;28.82;41.38
81299;BME280;70766;53.170;18.160;2023-06-19T09:12:03;101149.52;;;28.65;40.34
81299;BME280;70766;53.170;18.160;2023-06-19T09:14:38;101148.10;;;28.85;40.91
81299;BME280;70766;53.170;18.160;2023-06-19T09:17:17;101141.73;;;29.25;41.95
81299;BME280;70766;53.170;18.160;2023-06-19T09:19:50;101141.77;;;29.88;39.63
81299;BME280;70766;53.170;18.160;2023-06-19T09:22:21;101137.29;;;30.05;37.94
81299;BME280;70766;53.170;18.160;2023-06-19T09:24:50;101132.58;;;29.73;37.55
81299;BME280;70766;53.170;18.160;2023-06-19T09:27:19;101132.27;;;29.17;37.99
81299;BME280;70766;53.170;18.160;2023-06-19T09:29:49;101131.16;;;28.86;38.90
81299;BME280;70766;53.170;18.160;2023-06-19T09:32:25;101133.96;;;27.71;40.33
81299;BME280;70766;53.170;18.160;2023-06-19T09:34:55;101137.48;;;27.70;41.03
81299;BME280;70766;53.170;18.160;2023-06-19T09:37:29;101138.66;;;27.46;40.31
81299;BME280;70766;53.170;18.160;2023-06-19T09:40:05;101137.67;;;27.60;40.81
81299;BME280;70766;53.170;18.160;2023-06-19T09:42:43;101136.65;;;27.26;40.85
81299;BME280;70766;53.170;18.160;2023-06-19T09:45:24;101134.95;;;27.10;41.92
81299;BME280;70766;53.170;18.160;2023-06-19T09:47:55;101131.50;;;27.19;42.20
81299;BME280;70766;53.170;18.160;2023-06-19T09:50:29;101131.67;;;27.58;41.67
81299;BME280;70766;53.170;18.160;2023-06-19T09:52:57;101130.19;;;27.58;41.22
81299;BME280;70766;53.170;18.160;2023-06-19T09:55:27;101132.43;;;27.79;40.57
81299;BME280;70766;53.170;18.160;2023-06-19T09:57:59;101127.54;;;27.52;40.35
81299;BME280;70766;53.170;18.160;2023-06-19T10:00:28;101128.28;;;27.28;41.01
81299;BME280;70766;53.170;18.160;2023-06-19T10:03:00;101126.73;;;27.13;41.41
81299;BME280;70766;53.170;18.160;2023-06-19T10:05:33;101130.99;;;26.99;41.69
81299;BME280;70766;53.170;18.160;2023-06-19T10:08:03;101131.63;;;27.29;41.23
81299;BME280;70766;53.170;18.160;2023-06-19T10:10:32;101131.64;;;27.47;41.09
81299;BME280;70766;53.170;18.160;2023-06-19T10:13:13;101130.88;;;27.40;40.21
81299;BME280;70766;53.170;18.160;2023-06-19T10:15:42;101126.39;;;26.95;40.94
81299;BME280;70766;53.170;18.160;2023-06-19T10:18:15;101125.45;;;27.07;40.74
81299;BME280;70766;53.170;18.160;2023-06-19T10:20:46;101120.33;;;26.95;40.40
81299;BME280;70766;53.170;18.160;2023-06-19T10:23:17;101122.12;;;27.00;40.77
81299;BME280;70766;53.170;18.160;2023-06-19T10:25:58;101119.43;;;27.63;39.92
81299;BME280;70766;53.170;18.160;2023-06-19T10:28:33;101114.74;;;27.75;38.89
81299;BME280;70766;53.170;18.160;2023-06-19T10:31:08;101116.10;;;28.03;38.31
81299;BME280;70766;53.170;18.160;2023-06-19T10:33:37;101111.82;;;28.73;39.04
81299;BME280;70766;53.170;18.160;2023-06-19T10:36:19;101109.09;;;29.08;39.26
81299;BME280;70766;53.170;18.160;2023-06-19T10:38:48;101109.05;;;29.50;38.55
81299;BME280;70766;53.170;18.160;2023-06-19T10:41:21;101106.48;;;29.87;37.58
81299;BME280;70766;53.170;18.160;2023-06-19T10:43:55;101107.72;;;30.22;37.98
81299;BME280;70766;53.170;18.160;2023-06-19T10:46:24;101109.02;;;30.53;37.10
81299;BME280;70766;53.170;18.160;2023-06-19T10:48:58;101111.14;;;30.75;36.08
81299;BME280;70766;53.170;18.160;2023-06-19T10:51:40;101107.35;;;30.48;36.08
81299;BME280;70766;53.170;18.160;2023-06-19T10:54:08;101105.94;;;30.93;35.64
81299;BME280;70766;53.170;18.160;2023-06-19T10:56:36;101103.83;;;30.24;34.60
81299;BME280;70766;53.170;18.160;2023-06-19T10:59:07;101105.69;;;29.99;36.73
81299;BME280;70766;53.170;18.160;2023-06-19T11:01:40;101104.43;;;29.36;36.07
81299;BME280;70766;53.170;18.160;2023-06-19T11:04:09;101104.38;;;28.96;37.02
81299;BME280;70766;53.170;18.160;2023-06-19T11:06:39;101100.86;;;28.93;39.12
81299;BME280;70766;53.170;18.160;2023-06-19T11:09:08;101102.81;;;28.33;37.34
81299;BME280;70766;53.170;18.160;2023-06-19T11:11:45;101104.45;;;28.11;38.11
81299;BME280;70766;53.170;18.160;2023-06-19T11:14:15;101105.56;;;27.87;38.33
81299;BME280;70766;53.170;18.160;2023-06-19T11:16:46;101106.20;;;27.79;39.00
81299;BME280;70766;53.170;18.160;2023-06-19T11:19:18;101106.99;;;27.98;40.55
81299;BME280;70766;53.170;18.160;2023-06-19T11:21:49;101107.55;;;27.98;39.29
81299;BME280;70766;53.170;18.160;2023-06-19T11:24:18;101105.83;;;27.97;39.28
81299;BME280;70766;53.170;18.160;2023-06-19T11:26:49;101104.23;;;28.88;39.24
81299;BME280;70766;53.170;18.160;2023-06-19T11:29:19;101102.65;;;29.64;38.22
81299;BME280;70766;53.170;18.160;2023-06-19T11:31:49;101103.33;;;30.02;35.27
81299;BME280;70766;53.170;18.160;2023-06-19T11:34:17;101103.81;;;29.47;35.79
81299;BME280;70766;53.170;18.160;2023-06-19T11:36:52;101100.34;;;29.19;36.65
81299;BME280;70766;53.170;18.160;2023-06-19T11:39:21;101100.61;;;29.28;36.38
81299;BME280;70766;53.170;18.160;2023-06-19T11:41:50;101099.15;;;29.38;34.97
81299;BME280;70766;53.170;18.160;2023-06-19T11:44:22;101092.33;;;29.03;35.94
81299;BME280;70766;53.170;18.160;2023-06-19T11:46:50;101092.88;;;29.30;35.74
81299;BME280;70766;53.170;18.160;2023-06-19T11:49:19;101090.10;;;29.61;35.98
81299;BME280;70766;53.170;18.160;2023-06-19T11:51:48;101089.98;;;29.50;35.67
81299;BME280;70766;53.170;18.160;2023-06-19T11:54:16;101092.23;;;29.30;36.59
81299;BME280;70766;53.170;18.160;2023-06-19T11:56:44;101093.15;;;29.11;35.84
81299;BME280;70766;53.170;18.160;2023-06-19T11:59:13;101089.11;;;28.87;36.82
81299;BME280;70766;53.170;18.160;2023-06-19T12:01:42;101087.54;;;29.03;36.79
81299;BME280;70766;53.170;18.160;2023-06-19T12:04:10;101080.95;;;29.37;35.26
81299;BME280;70766;53.170;18.160;2023-06-19T12:06:38;101075.55;;;29.68;34.51
81299;BME280;70766;53.170;18.160;2023-06-19T12:09:06;101063.88;;;29.24;35.34
81299;BME280;70766;53.170;18.160;2023-06-19T12:11:35;101068.31;;;29.09;35.77
81299;BME280;70766;53.170;18.160;2023-06-19T12:14:03;101066.48;;;29.46;34.23
81299;BME280;70766;53.170;18.160;2023-06-19T12:16:31;101068.73;;;29.36;34.60
81299;BME280;70766;53.170;18.160;2023-06-19T12:19:00;101071.04;;;29.39;34.91
81299;BME280;70766;53.170;18.160;2023-06-19T12:21:28;101073.91;;;29.85;34.92
81299;BME280;70766;53.170;18.160;2023-06-19T12:24:03;101072.19;;;30.07;33.32
81299;BME280;70766;53.170;18.160;2023-06-19T12:26:33;101070.34;;;29.92;33.75
81299;BME280;70766;53.170;18.160;2023-06-19T12:29:06;101066.18;;;29.91;33.50
81299;BME280;70766;53.170;18.160;2023-06-19T12:31:35;101068.33;;;30.20;33.68
81299;BME280;70766;53.170;18.160;2023-06-19T12:34:06;101065.23;;;30.47;33.20
81299;BME280;70766;53.170;18.160;2023-06-19T12:36:37;101062.61;;;30.92;34.10
81299;BME280;70766;53.170;18.160;2023-06-19T12:39:05;101056.92;;;30.90;32.62
81299;BME280;70766;53.170;18.160;2023-06-19T12:41:41;101058.90;;;31.27;33.94
81299;BME280;70766;53.170;18.160;2023-06-19T12:44:10;101052.01;;;31.42;31.94
81299;BME280;70766;53.170;18.160;2023-06-19T12:46:38;101047.95;;;31.47;32.30
81299;BME280;70766;53.170;18.160;2023-06-19T12:49:07;101052.66;;;31.10;31.79
81299;BME280;70766;53.170;18.160;2023-06-19T12:51:35;101050.10;;;30.97;32.51